sensor_id;sensor_type;location;lat;lon;timestamp;P1;durP1;ratioP1;P2;durP2;ratioP2
13764;SDS011;6953;48.810;9.204;2023-04-08T00:02:18;0.57;;;0.57;;
13764;SDS011;6953;48.810;9.204;2023-04-08T00:04:43;0.50;;;0.50;;
13764;SDS011;6953;48.810;9.204;2023-04-08T00:07:09;0.45;;;0.45;;
13764;SDS011;6953;48.810;9.204;2023-04-08T00:09:34;0.52;;;0.52;;
13764;SDS011;6953;48.810;9.204;2023-04-08T00:12:00;0.60;;;0.60;;
13764;SDS011;6953;48.810;9.204;2023-04-08T00:14:26;0.60;;;0.60;;
13764;SDS011;6953;48.810;9.204;2023-04-08T00:16:51;0.40;;;0.40;;
13764;SDS011;6953;48.810;9.204;2023-04-08T00:19:16;0.45;;;0.45;;
13764;SDS011;6953;48.810;9.204;2023-04-08T00:21:42;0.50;;;0.50;;
13764;SDS011;6953;48.810;9.204;2023-04-08T00:24:07;0.50;;;0.50;;
13764;SDS011;6953;48.810;9.204;2023-04-08T00:26:32;0.60;;;0.60;;
13764;SDS011;6953;48.810;9.204;2023-04-08T00:28:58;0.50;;;0.50;;
13764;SDS011;6953;48.810;9.204;2023-04-08T00:31:23;0.45;;;0.45;;
13764;SDS011;6953;48.810;9.204;2023-04-08T00:33:48;0.50;;;0.50;;
13764;SDS011;6953;48.810;9.204;2023-04-08T00:36:14;0.50;;;0.50;;
13764;SDS011;6953;48.810;9.204;2023-04-08T00:38:40;0.60;;;0.60;;
13764;SDS011;6953;48.810;9.204;2023-04-08T00:41:05;0.70;;;0.70;;
13764;SDS011;6953;48.810;9.204;2023-04-08T00:43:30;0.60;;;0.60;;
13764;SDS011;6953;48.810;9.204;2023-04-08T00:45:56;0.50;;;0.50;;
13764;SDS011;6953;48.810;9.204;2023-04-08T00:48:21;0.50;;;0.50;;
13764;SDS011;6953;48.810;9.204;2023-04-08T00:50:46;0.50;;;0.50;;
13764;SDS011;6953;48.810;9.204;2023-04-08T00:53:14;0.50;;;0.50;;
13764;SDS011;6953;48.810;9.204;2023-04-08T00:55:41;0.55;;;0.55;;
13764;SDS011;6953;48.810;9.204;2023-04-08T00:58:07;0.60;;;0.60;;
13764;SDS011;6953;48.810;9.204;2023-04-08T01:00:32;0.50;;;0.50;;
13764;SDS011;6953;48.810;9.204;2023-04-08T01:05:38;0.60;;;0.60;;
13764;SDS011;6953;48.810;9.204;2023-04-08T01:08:13;0.60;;;0.60;;
13764;SDS011;6953;48.810;9.204;2023-04-08T01:10:41;0.60;;;0.60;;
13764;SDS011;6953;48.810;9.204;2023-04-08T01:13:13;0.50;;;0.50;;
13764;SDS011;6953;48.810;9.204;2023-04-08T01:15:42;0.60;;;0.60;;
13764;SDS011;6953;48.810;9.204;2023-04-08T01:18:12;0.60;;;0.60;;
13764;SDS011;6953;48.810;9.204;2023-04-08T01:20:40;0.50;;;0.50;;
13764;SDS011;6953;48.810;9.204;2023-04-08T01:23:12;0.60;;;0.60;;
13764;SDS011;6953;48.810;9.204;2023-04-08T01:25:54;0.65;;;0.65;;
13764;SDS011;6953;48.810;9.204;2023-04-08T01:28:21;0.60;;;0.60;;
13764;SDS011;6953;48.810;9.204;2023-04-08T01:30:48;0.60;;;0.60;;
13764;SDS011;6953;48.810;9.204;2023-04-08T01:33:15;0.50;;;0.50;;
13764;SDS011;6953;48.810;9.204;2023-04-08T01:35:42;0.60;;;0.60;;
13764;SDS011;6953;48.810;9.204;2023-04-08T01:38:10;0.55;;;0.55;;
13764;SDS011;6953;48.810;9.204;2023-04-08T01:40:42;0.60;;;0.60;;
13764;SDS011;6953;48.810;9.204;2023-04-08T01:43:09;0.50;;;0.50;;
13764;SDS011;6953;48.810;9.204;2023-04-08T01:45:35;0.50;;;0.50;;
13764;SDS011;6953;48.810;9.204;2023-04-08T01:48:00;0.50;;;0.50;;
13764;SDS011;6953;48.810;9.204;2023-04-08T01:50:27;0.60;;;0.60;;
13764;SDS011;6953;48.810;9.204;2023-04-08T01:52:54;0.60;;;0.60;;
13764;SDS011;6953;48.810;9.204;2023-04-08T01:55:21;0.47;;;0.47;;
13764;SDS011;6953;48.810;9.204;2023-04-08T01:57:49;0.60;;;0.60;;
13764;SDS011;6953;48.810;9.204;2023-04-08T02:00:17;0.60;;;0.60;;
13764;SDS011;6953;48.810;9.204;2023-04-08T02:02:46;0.60;;;0.60;;
13764;SDS011;6953;48.810;9.204;2023-04-08T02:05:13;0.50;;;0.50;;
13764;SDS011;6953;48.810;9.204;2023-04-08T02:07:38;0.50;;;0.50;;
13764;SDS011;6953;48.810;9.204;2023-04-08T02:10:04;0.50;;;0.50;;
13764;SDS011;6953;48.810;9.204;2023-04-08T02:12:30;0.60;;;0.60;;
13764;SDS011;6953;48.810;9.204;2023-04-08T02:14:57;0.60;;;0.60;;
13764;SDS011;6953;48.810;9.204;2023-04-08T02:20:09;0.60;;;0.60;;
13764;SDS011;6953;48.810;9.204;2023-04-08T02:25:22;0.50;;;0.50;;
13764;SDS011;6953;48.810;9.204;2023-04-08T02:27:49;0.60;;;0.60;;
13764;SDS011;6953;48.810;9.204;2023-04-08T02:30:18;0.50;;;0.50;;
13764;SDS011;6953;48.810;9.204;2023-04-08T02:32:46;0.50;;;0.50;;
13764;SDS011;6953;48.810;9.204;2023-04-08T02:35:12;0.55;;;0.55;;
13764;SDS011;6953;48.810;9.204;2023-04-08T02:37:39;0.50;;;0.50;;
13764;SDS011;6953;48.810;9.204;2023-04-08T02:40:26;0.50;;;0.50;;
13764;SDS011;6953;48.810;9.204;2023-04-08T02:42:52;0.50;;;0.50;;
13764;SDS011;6953;48.810;9.204;2023-04-08T02:45:18;0.60;;;0.60;;
13764;SDS011;6953;48.810;9.204;2023-04-08T02:47:44;0.60;;;0.60;;
13764;SDS011;6953;48.810;9.204;2023-04-08T02:50:09;0.60;;;0.60;;
13764;SDS011;6953;48.810;9.204;2023-04-08T02:52:35;0.50;;;0.50;;
13764;SDS011;6953;48.810;9.204;2023-04-08T02:55:00;0.50;;;0.50;;
13764;SDS011;6953;48.810;9.204;2023-04-08T02:57:26;0.50;;;0.50;;
13764;SDS011;6953;48.810;9.204;2023-04-08T02:59:51;0.50;;;0.50;;
13764;SDS011;6953;48.810;9.204;2023-04-08T03:02:17;0.50;;;0.50;;
13764;SDS011;6953;48.810;9.204;2023-04-08T03:04:42;0.60;;;0.60;;
13764;SDS011;6953;48.810;9.204;2023-04-08T03:07:07;0.50;;;0.50;;
13764;SDS011;6953;48.810;9.204;2023-04-08T03:09:33;0.50;;;0.50;;
13764;SDS011;6953;48.810;9.204;2023-04-08T03:11:58;0.60;;;0.60;;
13764;SDS011;6953;48.810;9.204;2023-04-08T03:14:24;0.60;;;0.60;;
13764;SDS011;6953;48.810;9.204;2023-04-08T03:16:49;0.60;;;0.60;;
13764;SDS011;6953;48.810;9.204;2023-04-08T03:19:15;0.50;;;0.50;;
13764;SDS011;6953;48.810;9.204;2023-04-08T03:21:40;0.50;;;0.50;;
13764;SDS011;6953;48.810;9.204;2023-04-08T03:24:05;0.50;;;0.50;;
13764;SDS011;6953;48.810;9.204;2023-04-08T03:26:31;0.50;;;0.50;;
13764;SDS011;6953;48.810;9.204;2023-04-08T03:28:56;0.57;;;0.57;;
13764;SDS011;6953;48.810;9.204;2023-04-08T03:31:21;0.50;;;0.50;;
13764;SDS011;6953;48.810;9.204;2023-04-08T03:33:47;0.60;;;0.60;;
13764;SDS011;6953;48.810;9.204;2023-04-08T03:36:12;0.60;;;0.60;;
13764;SDS011;6953;48.810;9.204;2023-04-08T03:38:38;0.60;;;0.60;;
13764;SDS011;6953;48.810;9.204;2023-04-08T03:41:03;0.60;;;0.60;;
13764;SDS011;6953;48.810;9.204;2023-04-08T03:43:28;0.50;;;0.50;;
13764;SDS011;6953;48.810;9.204;2023-04-08T03:45:54;0.60;;;0.60;;
13764;SDS011;6953;48.810;9.204;2023-04-08T03:48:20;0.57;;;0.57;;
13764;SDS011;6953;48.810;9.204;2023-04-08T03:50:46;0.63;;;0.63;;
13764;SDS011;6953;48.810;9.204;2023-04-08T03:53:11;0.50;;;0.50;;
13764;SDS011;6953;48.810;9.204;2023-04-08T03:55:37;0.55;;;0.55;;
13764;SDS011;6953;48.810;9.204;2023-04-08T03:58:03;0.60;;;0.60;;
13764;SDS011;6953;48.810;9.204;2023-04-08T04:00:28;0.60;;;0.60;;
13764;SDS011;6953;48.810;9.204;2023-04-08T04:02:53;0.55;;;0.55;;
13764;SDS011;6953;48.810;9.204;2023-04-08T04:05:20;0.53;;;0.53;;
13764;SDS011;6953;48.810;9.204;2023-04-08T04:07:46;0.60;;;0.60;;
13764;SDS011;6953;48.810;9.204;2023-04-08T04:10:11;0.60;;;0.60;;
13764;SDS011;6953;48.810;9.204;2023-04-08T04:12:37;0.60;;;0.60;;
13764;SDS011;6953;48.810;9.204;2023-04-08T04:15:02;0.50;;;0.50;;
13764;SDS011;6953;48.810;9.204;2023-04-08T04:17:28;0.60;;;0.60;;
13764;SDS011;6953;48.810;9.204;2023-04-08T04:19:53;0.70;;;0.70;;
13764;SDS011;6953;48.810;9.204;2023-04-08T04:22:19;0.60;;;0.60;;
13764;SDS011;6953;48.810;9.204;2023-04-08T04:24:47;0.60;;;0.60;;
13764;SDS011;6953;48.810;9.204;2023-04-08T04:27:13;0.60;;;0.60;;
13764;SDS011;6953;48.810;9.204;2023-04-08T04:29:39;0.63;;;0.63;;
13764;SDS011;6953;48.810;9.204;2023-04-08T04:32:04;0.50;;;0.50;;
13764;SDS011;6953;48.810;9.204;2023-04-08T04:34:30;0.60;;;0.60;;
13764;SDS011;6953;48.810;9.204;2023-04-08T04:36:56;0.60;;;0.60;;
13764;SDS011;6953;48.810;9.204;2023-04-08T04:39:21;0.60;;;0.60;;
13764;SDS011;6953;48.810;9.204;2023-04-08T04:41:47;0.60;;;0.60;;
13764;SDS011;6953;48.810;9.204;2023-04-08T04:44:13;0.67;;;0.67;;
13764;SDS011;6953;48.810;9.204;2023-04-08T04:46:38;0.60;;;0.60;;
13764;SDS011;6953;48.810;9.204;2023-04-08T04:49:04;0.60;;;0.60;;
13764;SDS011;6953;48.810;9.204;2023-04-08T04:51:30;0.60;;;0.60;;
13764;SDS011;6953;48.810;9.204;2023-04-08T04:53:57;0.50;;;0.50;;
13764;SDS011;6953;48.810;9.204;2023-04-08T04:56:22;0.50;;;0.50;;
13764;SDS011;6953;48.810;9.204;2023-04-08T04:58:47;0.40;;;0.40;;
13764;SDS011;6953;48.810;9.204;2023-04-08T05:01:13;0.50;;;0.50;;
13764;SDS011;6953;48.810;9.204;2023-04-08T05:03:38;0.60;;;0.60;;
13764;SDS011;6953;48.810;9.204;2023-04-08T05:06:03;0.60;;;0.60;;
13764;SDS011;6953;48.810;9.204;2023-04-08T05:08:29;0.70;;;0.70;;
13764;SDS011;6953;48.810;9.204;2023-04-08T05:10:55;0.60;;;0.60;;
13764;SDS011;6953;48.810;9.204;2023-04-08T05:13:20;0.60;;;0.60;;
13764;SDS011;6953;48.810;9.204;2023-04-08T05:15:46;0.70;;;0.70;;
13764;SDS011;6953;48.810;9.204;2023-04-08T05:18:11;0.60;;;0.60;;
13764;SDS011;6953;48.810;9.204;2023-04-08T05:20:37;0.60;;;0.60;;
13764;SDS011;6953;48.810;9.204;2023-04-08T05:23:02;0.50;;;0.50;;
13764;SDS011;6953;48.810;9.204;2023-04-08T05:25:28;0.70;;;0.70;;
13764;SDS011;6953;48.810;9.204;2023-04-08T05:27:54;0.60;;;0.60;;
13764;SDS011;6953;48.810;9.204;2023-04-08T05:30:20;0.60;;;0.60;;
13764;SDS011;6953;48.810;9.204;2023-04-08T05:32:45;0.60;;;0.60;;
13764;SDS011;6953;48.810;9.204;2023-04-08T05:35:10;0.50;;;0.50;;
13764;SDS011;6953;48.810;9.204;2023-04-08T05:37:36;0.50;;;0.50;;
13764;SDS011;6953;48.810;9.204;2023-04-08T05:40:01;0.60;;;0.60;;
13764;SDS011;6953;48.810;9.204;2023-04-08T05:42:27;0.60;;;0.60;;
13764;SDS011;6953;48.810;9.204;2023-04-08T05:44:52;0.60;;;0.60;;
13764;SDS011;6953;48.810;9.204;2023-04-08T05:47:18;0.60;;;0.60;;
13764;SDS011;6953;48.810;9.204;2023-04-08T05:49:43;0.53;;;0.53;;
13764;SDS011;6953;48.810;9.204;2023-04-08T05:52:08;0.40;;;0.40;;
13764;SDS011;6953;48.810;9.204;2023-04-08T05:54:34;0.50;;;0.50;;
13764;SDS011;6953;48.810;9.204;2023-04-08T05:56:59;0.60;;;0.60;;
13764;SDS011;6953;48.810;9.204;2023-04-08T05:59:25;0.50;;;0.50;;
13764;SDS011;6953;48.810;9.204;2023-04-08T06:01:50;0.60;;;0.60;;
13764;SDS011;6953;48.810;9.204;2023-04-08T06:04:15;0.60;;;0.60;;
13764;SDS011;6953;48.810;9.204;2023-04-08T06:06:41;0.43;;;0.43;;
13764;SDS011;6953;48.810;9.204;2023-04-08T06:09:07;0.60;;;0.60;;
13764;SDS011;6953;48.810;9.204;2023-04-08T06:11:34;0.50;;;0.50;;
13764;SDS011;6953;48.810;9.204;2023-04-08T06:13:59;0.55;;;0.55;;
13764;SDS011;6953;48.810;9.204;2023-04-08T06:16:25;0.50;;;0.50;;
13764;SDS011;6953;48.810;9.204;2023-04-08T06:18:50;0.60;;;0.60;;
13764;SDS011;6953;48.810;9.204;2023-04-08T06:21:16;0.50;;;0.50;;
13764;SDS011;6953;48.810;9.204;2023-04-08T06:23:41;0.55;;;0.55;;
13764;SDS011;6953;48.810;9.204;2023-04-08T06:26:07;0.55;;;0.55;;
13764;SDS011;6953;48.810;9.204;2023-04-08T06:28:32;0.45;;;0.45;;
13764;SDS011;6953;48.810;9.204;2023-04-08T06:30:58;0.50;;;0.50;;
13764;SDS011;6953;48.810;9.204;2023-04-08T06:33:23;0.57;;;0.57;;
13764;SDS011;6953;48.810;9.204;2023-04-08T06:35:49;0.60;;;0.60;;
13764;SDS011;6953;48.810;9.204;2023-04-08T06:38:14;0.50;;;0.50;;
13764;SDS011;6953;48.810;9.204;2023-04-08T06:40:40;0.60;;;0.60;;
13764;SDS011;6953;48.810;9.204;2023-04-08T06:43:05;0.50;;;0.50;;
13764;SDS011;6953;48.810;9.204;2023-04-08T06:45:32;0.50;;;0.50;;
13764;SDS011;6953;48.810;9.204;2023-04-08T06:47:58;0.50;;;0.50;;
13764;SDS011;6953;48.810;9.204;2023-04-08T06:50:23;0.50;;;0.50;;
13764;SDS011;6953;48.810;9.204;2023-04-08T06:52:51;0.50;;;0.50;;
13764;SDS011;6953;48.810;9.204;2023-04-08T06:55:17;0.50;;;0.50;;
13764;SDS011;6953;48.810;9.204;2023-04-08T06:57:42;0.50;;;0.50;;
13764;SDS011;6953;48.810;9.204;2023-04-08T07:00:08;0.50;;;0.50;;
13764;SDS011;6953;48.810;9.204;2023-04-08T07:02:33;0.60;;;0.60;;
13764;SDS011;6953;48.810;9.204;2023-04-08T07:04:59;0.50;;;0.50;;
13764;SDS011;6953;48.810;9.204;2023-04-08T07:07:25;0.60;;;0.60;;
13764;SDS011;6953;48.810;9.204;2023-04-08T07:09:50;0.50;;;0.50;;
13764;SDS011;6953;48.810;9.204;2023-04-08T07:12:16;0.50;;;0.50;;
13764;SDS011;6953;48.810;9.204;2023-04-08T07:14:41;0.50;;;0.50;;
13764;SDS011;6953;48.810;9.204;2023-04-08T07:17:06;0.52;;;0.52;;
13764;SDS011;6953;48.810;9.204;2023-04-08T07:19:32;0.57;;;0.57;;
13764;SDS011;6953;48.810;9.204;2023-04-08T07:21:57;0.50;;;0.50;;
13764;SDS011;6953;48.810;9.204;2023-04-08T07:24:23;0.60;;;0.60;;
13764;SDS011;6953;48.810;9.204;2023-04-08T07:26:48;0.50;;;0.50;;
13764;SDS011;6953;48.810;9.204;2023-04-08T07:29:14;0.40;;;0.40;;
13764;SDS011;6953;48.810;9.204;2023-04-08T07:31:39;0.32;;;0.32;;
13764;SDS011;6953;48.810;9.204;2023-04-08T07:34:07;0.40;;;0.40;;
13764;SDS011;6953;48.810;9.204;2023-04-08T07:36:32;0.40;;;0.40;;
13764;SDS011;6953;48.810;9.204;2023-04-08T07:38:57;0.40;;;0.40;;
13764;SDS011;6953;48.810;9.204;2023-04-08T07:41:23;0.45;;;0.45;;
13764;SDS011;6953;48.810;9.204;2023-04-08T07:43:48;0.40;;;0.40;;
13764;SDS011;6953;48.810;9.204;2023-04-08T07:46:13;0.40;;;0.40;;
13764;SDS011;6953;48.810;9.204;2023-04-08T07:48:39;0.30;;;0.30;;
13764;SDS011;6953;48.810;9.204;2023-04-08T07:51:08;0.40;;;0.40;;
13764;SDS011;6953;48.810;9.204;2023-04-08T07:53:33;0.38;;;0.38;;
13764;SDS011;6953;48.810;9.204;2023-04-08T07:56:00;0.40;;;0.40;;
13764;SDS011;6953;48.810;9.204;2023-04-08T07:58:28;0.30;;;0.30;;
13764;SDS011;6953;48.810;9.204;2023-04-08T08:00:53;0.35;;;0.35;;
13764;SDS011;6953;48.810;9.204;2023-04-08T08:03:18;0.30;;;0.30;;
13764;SDS011;6953;48.810;9.204;2023-04-08T08:05:44;0.50;;;0.50;;
13764;SDS011;6953;48.810;9.204;2023-04-08T08:08:09;0.40;;;0.40;;
13764;SDS011;6953;48.810;9.204;2023-04-08T08:10:38;0.50;;;0.50;;
13764;SDS011;6953;48.810;9.204;2023-04-08T08:13:03;0.40;;;0.40;;
13764;SDS011;6953;48.810;9.204;2023-04-08T08:15:30;0.40;;;0.40;;
13764;SDS011;6953;48.810;9.204;2023-04-08T08:17:55;0.40;;;0.40;;
13764;SDS011;6953;48.810;9.204;2023-04-08T08:20:21;0.30;;;0.30;;
13764;SDS011;6953;48.810;9.204;2023-04-08T08:22:46;0.30;;;0.30;;
13764;SDS011;6953;48.810;9.204;2023-04-08T08:25:11;0.40;;;0.40;;
13764;SDS011;6953;48.810;9.204;2023-04-08T08:27:37;0.30;;;0.30;;
13764;SDS011;6953;48.810;9.204;2023-04-08T08:30:05;0.30;;;0.30;;
13764;SDS011;6953;48.810;9.204;2023-04-08T08:32:31;0.38;;;0.38;;
13764;SDS011;6953;48.810;9.204;2023-04-08T08:34:56;0.30;;;0.30;;
13764;SDS011;6953;48.810;9.204;2023-04-08T08:37:22;0.40;;;0.40;;
13764;SDS011;6953;48.810;9.204;2023-04-08T08:39:47;0.32;;;0.32;;
13764;SDS011;6953;48.810;9.204;2023-04-08T08:42:19;0.40;;;0.40;;
13764;SDS011;6953;48.810;9.204;2023-04-08T08:44:46;0.30;;;0.30;;
13764;SDS011;6953;48.810;9.204;2023-04-08T08:47:12;0.28;;;0.28;;
13764;SDS011;6953;48.810;9.204;2023-04-08T08:49:37;0.30;;;0.30;;
13764;SDS011;6953;48.810;9.204;2023-04-08T08:52:03;0.30;;;0.30;;
13764;SDS011;6953;48.810;9.204;2023-04-08T08:54:28;0.30;;;0.30;;
13764;SDS011;6953;48.810;9.204;2023-04-08T08:56:54;0.28;;;0.28;;
13764;SDS011;6953;48.810;9.204;2023-04-08T08:59:19;0.30;;;0.30;;
13764;SDS011;6953;48.810;9.204;2023-04-08T09:01:44;0.20;;;0.20;;
13764;SDS011;6953;48.810;9.204;2023-04-08T09:06:37;0.20;;;0.20;;
13764;SDS011;6953;48.810;9.204;2023-04-08T09:09:03;0.30;;;0.30;;
13764;SDS011;6953;48.810;9.204;2023-04-08T09:11:34;0.30;;;0.30;;
13764;SDS011;6953;48.810;9.204;2023-04-08T09:14:01;0.20;;;0.20;;
13764;SDS011;6953;48.810;9.204;2023-04-08T09:16:26;0.20;;;0.20;;
13764;SDS011;6953;48.810;9.204;2023-04-08T09:18:52;0.28;;;0.28;;
13764;SDS011;6953;48.810;9.204;2023-04-08T09:21:18;0.30;;;0.30;;
13764;SDS011;6953;48.810;9.204;2023-04-08T09:23:50;0.30;;;0.30;;
13764;SDS011;6953;48.810;9.204;2023-04-08T09:26:16;0.30;;;0.30;;
13764;SDS011;6953;48.810;9.204;2023-04-08T09:31:24;0.30;;;0.30;;
13764;SDS011;6953;48.810;9.204;2023-04-08T09:33:55;0.30;;;0.30;;
13764;SDS011;6953;48.810;9.204;2023-04-08T09:36:26;0.20;;;0.20;;
13764;SDS011;6953;48.810;9.204;2023-04-08T09:38:52;0.20;;;0.20;;
13764;SDS011;6953;48.810;9.204;2023-04-08T09:41:19;0.28;;;0.28;;
13764;SDS011;6953;48.810;9.204;2023-04-08T09:43:47;0.20;;;0.20;;
13764;SDS011;6953;48.810;9.204;2023-04-08T09:46:16;0.20;;;0.20;;
13764;SDS011;6953;48.810;9.204;2023-04-08T09:48:48;0.20;;;0.20;;
13764;SDS011;6953;48.810;9.204;2023-04-08T09:51:15;0.20;;;0.20;;
13764;SDS011;6953;48.810;9.204;2023-04-08T09:53:47;0.20;;;0.20;;
13764;SDS011;6953;48.810;9.204;2023-04-08T09:56:14;0.20;;;0.20;;
13764;SDS011;6953;48.810;9.204;2023-04-08T09:58:44;0.20;;;0.20;;
13764;SDS011;6953;48.810;9.204;2023-04-08T10:01:25;0.20;;;0.20;;
13764;SDS011;6953;48.810;9.204;2023-04-08T10:03:56;0.20;;;0.20;;
13764;SDS011;6953;48.810;9.204;2023-04-08T10:06:27;0.20;;;0.20;;
13764;SDS011;6953;48.810;9.204;2023-04-08T10:08:54;0.20;;;0.20;;
13764;SDS011;6953;48.810;9.204;2023-04-08T10:11:20;0.20;;;0.20;;
13764;SDS011;6953;48.810;9.204;2023-04-08T10:13:45;0.20;;;0.20;;
13764;SDS011;6953;48.810;9.204;2023-04-08T10:18:43;0.20;;;0.20;;
13764;SDS011;6953;48.810;9.204;2023-04-08T10:21:29;0.20;;;0.20;;
13764;SDS011;6953;48.810;9.204;2023-04-08T10:23:58;0.20;;;0.20;;
13764;SDS011;6953;48.810;9.204;2023-04-08T10:26:28;0.20;;;0.20;;
13764;SDS011;6953;48.810;9.204;2023-04-08T10:28:59;0.30;;;0.30;;
13764;SDS011;6953;48.810;9.204;2023-04-08T10:31:41;0.20;;;0.20;;
13764;SDS011;6953;48.810;9.204;2023-04-08T10:36:48;0.28;;;0.28;;
13764;SDS011;6953;48.810;9.204;2023-04-08T10:39:14;0.30;;;0.30;;
13764;SDS011;6953;48.810;9.204;2023-04-08T10:41:44;0.30;;;0.30;;
13764;SDS011;6953;48.810;9.204;2023-04-08T10:44:17;0.30;;;0.30;;
13764;SDS011;6953;48.810;9.204;2023-04-08T10:46:51;0.38;;;0.38;;
13764;SDS011;6953;48.810;9.204;2023-04-08T10:49:17;0.40;;;0.40;;
13764;SDS011;6953;48.810;9.204;2023-04-08T10:51:43;0.30;;;0.30;;
13764;SDS011;6953;48.810;9.204;2023-04-08T10:54:10;0.40;;;0.40;;
13764;SDS011;6953;48.810;9.204;2023-04-08T10:56:49;0.40;;;0.40;;
13764;SDS011;6953;48.810;9.204;2023-04-08T10:59:27;0.40;;;0.40;;
13764;SDS011;6953;48.810;9.204;2023-04-08T11:01:54;0.30;;;0.30;;
13764;SDS011;6953;48.810;9.204;2023-04-08T11:04:21;0.30;;;0.30;;
13764;SDS011;6953;48.810;9.204;2023-04-08T11:06:47;0.40;;;0.40;;
13764;SDS011;6953;48.810;9.204;2023-04-08T11:09:14;0.32;;;0.32;;
13764;SDS011;6953;48.810;9.204;2023-04-08T11:11:41;0.30;;;0.30;;
13764;SDS011;6953;48.810;9.204;2023-04-08T11:14:07;0.30;;;0.30;;
13764;SDS011;6953;48.810;9.204;2023-04-08T11:16:33;0.40;;;0.40;;
13764;SDS011;6953;48.810;9.204;2023-04-08T11:19:01;0.40;;;0.40;;
13764;SDS011;6953;48.810;9.204;2023-04-08T11:21:28;0.32;;;0.32;;
13764;SDS011;6953;48.810;9.204;2023-04-08T11:23:54;0.28;;;0.28;;
13764;SDS011;6953;48.810;9.204;2023-04-08T11:26:20;0.40;;;0.40;;
13764;SDS011;6953;48.810;9.204;2023-04-08T11:28:46;0.30;;;0.30;;
13764;SDS011;6953;48.810;9.204;2023-04-08T11:31:15;0.40;;;0.40;;
13764;SDS011;6953;48.810;9.204;2023-04-08T11:33:45;0.30;;;0.30;;
13764;SDS011;6953;48.810;9.204;2023-04-08T11:36:12;0.30;;;0.30;;
13764;SDS011;6953;48.810;9.204;2023-04-08T11:38:38;0.30;;;0.30;;
13764;SDS011;6953;48.810;9.204;2023-04-08T11:41:07;0.40;;;0.40;;
13764;SDS011;6953;48.810;9.204;2023-04-08T11:43:33;0.30;;;0.30;;
13764;SDS011;6953;48.810;9.204;2023-04-08T11:46:07;0.40;;;0.40;;
13764;SDS011;6953;48.810;9.204;2023-04-08T11:48:33;0.40;;;0.40;;
13764;SDS011;6953;48.810;9.204;2023-04-08T11:51:02;0.30;;;0.30;;
13764;SDS011;6953;48.810;9.204;2023-04-08T11:53:34;0.30;;;0.30;;
13764;SDS011;6953;48.810;9.204;2023-04-08T11:56:15;0.40;;;0.40;;
13764;SDS011;6953;48.810;9.204;2023-04-08T11:58:42;0.40;;;0.40;;
13764;SDS011;6953;48.810;9.204;2023-04-08T12:01:07;0.35;;;0.35;;
13764;SDS011;6953;48.810;9.204;2023-04-08T12:03:32;0.40;;;0.40;;
13764;SDS011;6953;48.810;9.204;2023-04-08T12:05:58;0.30;;;0.30;;
13764;SDS011;6953;48.810;9.204;2023-04-08T12:08:23;0.35;;;0.35;;
13764;SDS011;6953;48.810;9.204;2023-04-08T12:10:49;0.40;;;0.40;;
13764;SDS011;6953;48.810;9.204;2023-04-08T12:13:14;0.32;;;0.32;;
13764;SDS011;6953;48.810;9.204;2023-04-08T12:15:39;0.30;;;0.30;;
13764;SDS011;6953;48.810;9.204;2023-04-08T12:18:06;0.40;;;0.40;;
13764;SDS011;6953;48.810;9.204;2023-04-08T12:20:31;0.40;;;0.40;;
13764;SDS011;6953;48.810;9.204;2023-04-08T12:22:56;0.40;;;0.40;;
13764;SDS011;6953;48.810;9.204;2023-04-08T12:25:22;0.40;;;0.40;;
13764;SDS011;6953;48.810;9.204;2023-04-08T12:27:47;0.40;;;0.40;;
13764;SDS011;6953;48.810;9.204;2023-04-08T12:30:13;0.40;;;0.40;;
13764;SDS011;6953;48.810;9.204;2023-04-08T12:32:38;0.40;;;0.40;;
13764;SDS011;6953;48.810;9.204;2023-04-08T12:35:05;0.35;;;0.35;;
13764;SDS011;6953;48.810;9.204;2023-04-08T12:37:30;0.30;;;0.30;;
13764;SDS011;6953;48.810;9.204;2023-04-08T12:39:57;0.30;;;0.30;;
13764;SDS011;6953;48.810;9.204;2023-04-08T12:42:22;0.40;;;0.40;;
13764;SDS011;6953;48.810;9.204;2023-04-08T12:44:48;0.30;;;0.30;;
13764;SDS011;6953;48.810;9.204;2023-04-08T12:47:13;0.30;;;0.30;;
13764;SDS011;6953;48.810;9.204;2023-04-08T12:49:38;0.38;;;0.38;;
13764;SDS011;6953;48.810;9.204;2023-04-08T12:52:04;0.30;;;0.30;;
13764;SDS011;6953;48.810;9.204;2023-04-08T12:54:29;0.30;;;0.30;;
13764;SDS011;6953;48.810;9.204;2023-04-08T12:56:55;0.38;;;0.38;;
13764;SDS011;6953;48.810;9.204;2023-04-08T12:59:21;0.40;;;0.40;;
13764;SDS011;6953;48.810;9.204;2023-04-08T13:01:46;0.30;;;0.30;;
13764;SDS011;6953;48.810;9.204;2023-04-08T13:04:12;0.30;;;0.30;;
13764;SDS011;6953;48.810;9.204;2023-04-08T13:06:37;0.30;;;0.30;;
13764;SDS011;6953;48.810;9.204;2023-04-08T13:09:02;0.30;;;0.30;;
13764;SDS011;6953;48.810;9.204;2023-04-08T13:11:28;0.40;;;0.40;;
13764;SDS011;6953;48.810;9.204;2023-04-08T13:13:53;0.30;;;0.30;;
13764;SDS011;6953;48.810;9.204;2023-04-08T13:16:18;0.40;;;0.40;;
13764;SDS011;6953;48.810;9.204;2023-04-08T13:18:44;0.40;;;0.40;;
13764;SDS011;6953;48.810;9.204;2023-04-08T13:21:09;0.30;;;0.30;;
13764;SDS011;6953;48.810;9.204;2023-04-08T13:23:35;0.40;;;0.40;;
13764;SDS011;6953;48.810;9.204;2023-04-08T13:26:01;0.40;;;0.40;;
13764;SDS011;6953;48.810;9.204;2023-04-08T13:28:26;0.35;;;0.35;;
13764;SDS011;6953;48.810;9.204;2023-04-08T13:30:51;0.30;;;0.30;;
13764;SDS011;6953;48.810;9.204;2023-04-08T13:33:17;0.30;;;0.30;;
13764;SDS011;6953;48.810;9.204;2023-04-08T13:35:43;0.40;;;0.40;;
13764;SDS011;6953;48.810;9.204;2023-04-08T13:38:08;0.30;;;0.30;;
13764;SDS011;6953;48.810;9.204;2023-04-08T13:40:34;0.40;;;0.40;;
13764;SDS011;6953;48.810;9.204;2023-04-08T13:43:00;0.30;;;0.30;;
13764;SDS011;6953;48.810;9.204;2023-04-08T13:45:26;0.40;;;0.40;;
13764;SDS011;6953;48.810;9.204;2023-04-08T13:47:51;0.40;;;0.40;;
13764;SDS011;6953;48.810;9.204;2023-04-08T13:50:16;0.40;;;0.40;;
13764;SDS011;6953;48.810;9.204;2023-04-08T13:52:42;0.40;;;0.40;;
13764;SDS011;6953;48.810;9.204;2023-04-08T13:55:07;0.40;;;0.40;;
13764;SDS011;6953;48.810;9.204;2023-04-08T13:57:33;0.40;;;0.40;;
13764;SDS011;6953;48.810;9.204;2023-04-08T13:59:58;0.40;;;0.40;;
13764;SDS011;6953;48.810;9.204;2023-04-08T14:02:23;0.40;;;0.40;;
13764;SDS011;6953;48.810;9.204;2023-04-08T14:04:49;0.40;;;0.40;;
13764;SDS011;6953;48.810;9.204;2023-04-08T14:07:14;0.30;;;0.30;;
13764;SDS011;6953;48.810;9.204;2023-04-08T14:09:41;0.40;;;0.40;;
13764;SDS011;6953;48.810;9.204;2023-04-08T14:12:06;0.40;;;0.40;;
13764;SDS011;6953;48.810;9.204;2023-04-08T14:14:31;0.40;;;0.40;;
13764;SDS011;6953;48.810;9.204;2023-04-08T14:16:57;0.40;;;0.40;;
13764;SDS011;6953;48.810;9.204;2023-04-08T14:19:23;0.30;;;0.30;;
13764;SDS011;6953;48.810;9.204;2023-04-08T14:21:49;0.40;;;0.40;;
13764;SDS011;6953;48.810;9.204;2023-04-08T14:24:14;0.30;;;0.30;;
13764;SDS011;6953;48.810;9.204;2023-04-08T14:26:40;0.38;;;0.38;;
13764;SDS011;6953;48.810;9.204;2023-04-08T14:29:06;0.40;;;0.40;;
13764;SDS011;6953;48.810;9.204;2023-04-08T14:31:32;0.40;;;0.40;;
13764;SDS011;6953;48.810;9.204;2023-04-08T14:33:59;0.30;;;0.30;;
13764;SDS011;6953;48.810;9.204;2023-04-08T14:36:25;0.40;;;0.40;;
13764;SDS011;6953;48.810;9.204;2023-04-08T14:38:51;0.40;;;0.40;;
13764;SDS011;6953;48.810;9.204;2023-04-08T14:41:16;0.40;;;0.40;;
13764;SDS011;6953;48.810;9.204;2023-04-08T14:43:42;0.30;;;0.30;;
13764;SDS011;6953;48.810;9.204;2023-04-08T14:46:07;0.38;;;0.38;;
13764;SDS011;6953;48.810;9.204;2023-04-08T14:48:32;0.30;;;0.30;;
13764;SDS011;6953;48.810;9.204;2023-04-08T14:50:58;0.30;;;0.30;;
13764;SDS011;6953;48.810;9.204;2023-04-08T14:53:24;0.30;;;0.30;;
13764;SDS011;6953;48.810;9.204;2023-04-08T14:55:49;0.40;;;0.40;;
13764;SDS011;6953;48.810;9.204;2023-04-08T14:58:15;0.35;;;0.35;;
13764;SDS011;6953;48.810;9.204;2023-04-08T15:00:40;0.40;;;0.40;;
13764;SDS011;6953;48.810;9.204;2023-04-08T15:03:10;0.40;;;0.40;;
13764;SDS011;6953;48.810;9.204;2023-04-08T15:05:36;0.40;;;0.40;;
13764;SDS011;6953;48.810;9.204;2023-04-08T15:08:01;0.35;;;0.35;;
13764;SDS011;6953;48.810;9.204;2023-04-08T15:10:27;0.38;;;0.38;;
13764;SDS011;6953;48.810;9.204;2023-04-08T15:12:52;0.35;;;0.35;;
13764;SDS011;6953;48.810;9.204;2023-04-08T15:15:18;0.30;;;0.30;;